sensor_id;sensor_type;location;lat;lon;timestamp;temperature;humidity
39677;DHT22;27789;50.840;4.386;2022-07-25T00:01:56;26.90;72.50
39677;DHT22;27789;50.840;4.386;2022-07-25T00:04:22;26.90;72.50
39677;DHT22;27789;50.840;4.386;2022-07-25T00:06:50;26.90;72.40
39677;DHT22;27789;50.840;4.386;2022-07-25T00:09:16;26.80;72.50
39677;DHT22;27789;50.840;4.386;2022-07-25T00:11:42;26.80;72.50
39677;DHT22;27789;50.840;4.386;2022-07-25T00:14:07;26.80;72.50
39677;DHT22;27789;50.840;4.386;2022-07-25T00:16:33;26.80;72.60
39677;DHT22;27789;50.840;4.386;2022-07-25T00:18:59;26.80;72.70
39677;DHT22;27789;50.840;4.386;2022-07-25T00:21:25;26.80;72.70
39677;DHT22;27789;50.840;4.386;2022-07-25T00:23:50;26.80;73.30
39677;DHT22;27789;50.840;4.386;2022-07-25T00:26:16;26.70;72.80
39677;DHT22;27789;50.840;4.386;2022-07-25T00:28:42;26.70;72.70
39677;DHT22;27789;50.840;4.386;2022-07-25T00:31:08;26.70;72.90
39677;DHT22;27789;50.840;4.386;2022-07-25T00:33:33;26.70;73.10
39677;DHT22;27789;50.840;4.386;2022-07-25T00:35:59;26.70;73.10
39677;DHT22;27789;50.840;4.386;2022-07-25T00:38:25;26.70;73.00
39677;DHT22;27789;50.840;4.386;2022-07-25T00:40:50;26.70;73.30
39677;DHT22;27789;50.840;4.386;2022-07-25T00:43:16;26.60;73.20
39677;DHT22;27789;50.840;4.386;2022-07-25T00:45:41;26.60;73.20
39677;DHT22;27789;50.840;4.386;2022-07-25T00:48:07;26.60;73.50
39677;DHT22;27789;50.840;4.386;2022-07-25T00:50:33;26.60;73.50
39677;DHT22;27789;50.840;4.386;2022-07-25T00:52:59;26.50;73.30
39677;DHT22;27789;50.840;4.386;2022-07-25T00:55:26;26.60;73.50
39677;DHT22;27789;50.840;4.386;2022-07-25T00:57:51;26.50;73.40
39677;DHT22;27789;50.840;4.386;2022-07-25T01:00:17;26.50;73.50
39677;DHT22;27789;50.840;4.386;2022-07-25T01:02:45;26.50;73.50
39677;DHT22;27789;50.840;4.386;2022-07-25T01:05:11;26.50;73.50
39677;DHT22;27789;50.840;4.386;2022-07-25T01:07:37;26.50;73.60
39677;DHT22;27789;50.840;4.386;2022-07-25T01:10:04;26.50;73.60
39677;DHT22;27789;50.840;4.386;2022-07-25T01:12:30;26.50;73.70
39677;DHT22;27789;50.840;4.386;2022-07-25T01:14:56;26.50;73.80
39677;DHT22;27789;50.840;4.386;2022-07-25T01:17:23;26.40;74.00
39677;DHT22;27789;50.840;4.386;2022-07-25T01:19:48;26.40;73.90
39677;DHT22;27789;50.840;4.386;2022-07-25T01:22:16;26.40;73.90
39677;DHT22;27789;50.840;4.386;2022-07-25T01:24:41;26.40;74.10
39677;DHT22;27789;50.840;4.386;2022-07-25T01:27:07;26.40;74.20
39677;DHT22;27789;50.840;4.386;2022-07-25T01:29:33;26.40;74.20
39677;DHT22;27789;50.840;4.386;2022-07-25T01:31:58;26.40;74.30
39677;DHT22;27789;50.840;4.386;2022-07-25T01:34:24;26.30;74.20
39677;DHT22;27789;50.840;4.386;2022-07-25T01:36:49;26.30;74.40
39677;DHT22;27789;50.840;4.386;2022-07-25T01:39:15;26.30;74.40
39677;DHT22;27789;50.840;4.386;2022-07-25T01:41:41;26.30;74.40
39677;DHT22;27789;50.840;4.386;2022-07-25T01:44:06;26.30;74.60
39677;DHT22;27789;50.840;4.386;2022-07-25T01:46:32;26.20;74.50
39677;DHT22;27789;50.840;4.386;2022-07-25T01:48:59;26.20;74.70
39677;DHT22;27789;50.840;4.386;2022-07-25T01:51:24;26.10;74.70
39677;DHT22;27789;50.840;4.386;2022-07-25T01:53:50;26.20;74.70
39677;DHT22;27789;50.840;4.386;2022-07-25T01:56:16;26.20;75.00
39677;DHT22;27789;50.840;4.386;2022-07-25T01:58:41;26.10;75.30
39677;DHT22;27789;50.840;4.386;2022-07-25T02:01:07;26.10;75.20
39677;DHT22;27789;50.840;4.386;2022-07-25T02:03:33;26.10;75.40
39677;DHT22;27789;50.840;4.386;2022-07-25T02:06:04;26.00;75.80
39677;DHT22;27789;50.840;4.386;2022-07-25T02:08:30;25.90;76.40
39677;DHT22;27789;50.840;4.386;2022-07-25T02:10:56;25.90;76.20
39677;DHT22;27789;50.840;4.386;2022-07-25T02:13:22;25.90;76.20
39677;DHT22;27789;50.840;4.386;2022-07-25T02:15:48;25.90;76.60
39677;DHT22;27789;50.840;4.386;2022-07-25T02:18:14;25.80;77.20
39677;DHT22;27789;50.840;4.386;2022-07-25T02:20:40;25.70;77.40
39677;DHT22;27789;50.840;4.386;2022-07-25T02:23:06;25.60;77.80
39677;DHT22;27789;50.840;4.386;2022-07-25T02:25:32;25.60;78.10
39677;DHT22;27789;50.840;4.386;2022-07-25T02:27:58;25.50;78.90
39677;DHT22;27789;50.840;4.386;2022-07-25T02:30:24;25.50;79.10
39677;DHT22;27789;50.840;4.386;2022-07-25T02:32:51;25.40;78.70
39677;DHT22;27789;50.840;4.386;2022-07-25T02:35:16;25.40;79.30
39677;DHT22;27789;50.840;4.386;2022-07-25T02:37:42;25.30;79.90
39677;DHT22;27789;50.840;4.386;2022-07-25T02:40:08;25.30;79.40
39677;DHT22;27789;50.840;4.386;2022-07-25T02:42:34;25.30;79.20
39677;DHT22;27789;50.840;4.386;2022-07-25T02:45:00;25.20;79.40
39677;DHT22;27789;50.840;4.386;2022-07-25T02:47:26;25.20;79.50
39677;DHT22;27789;50.840;4.386;2022-07-25T02:49:52;25.20;79.80
39677;DHT22;27789;50.840;4.386;2022-07-25T02:52:17;25.20;79.90
39677;DHT22;27789;50.840;4.386;2022-07-25T02:54:43;25.10;80.10
39677;DHT22;27789;50.840;4.386;2022-07-25T02:57:09;25.10;80.20
39677;DHT22;27789;50.840;4.386;2022-07-25T02:59:35;25.10;80.40
39677;DHT22;27789;50.840;4.386;2022-07-25T03:02:00;25.00;80.60
39677;DHT22;27789;50.840;4.386;2022-07-25T03:04:26;25.00;80.60
39677;DHT22;27789;50.840;4.386;2022-07-25T03:06:52;25.00;80.90
39677;DHT22;27789;50.840;4.386;2022-07-25T03:09:17;25.00;80.70
39677;DHT22;27789;50.840;4.386;2022-07-25T03:11:43;25.00;80.80
39677;DHT22;27789;50.840;4.386;2022-07-25T03:14:09;25.00;80.80
39677;DHT22;27789;50.840;4.386;2022-07-25T03:16:34;24.80;81.00
39677;DHT22;27789;50.840;4.386;2022-07-25T03:19:01;24.80;81.30
39677;DHT22;27789;50.840;4.386;2022-07-25T03:21:27;24.80;81.30
39677;DHT22;27789;50.840;4.386;2022-07-25T03:23:52;24.80;81.40
39677;DHT22;27789;50.840;4.386;2022-07-25T03:26:18;24.80;81.30
39677;DHT22;27789;50.840;4.386;2022-07-25T03:28:44;24.80;81.50
39677;DHT22;27789;50.840;4.386;2022-07-25T03:31:10;24.80;81.50
39677;DHT22;27789;50.840;4.386;2022-07-25T03:33:35;24.70;81.70
39677;DHT22;27789;50.840;4.386;2022-07-25T03:36:01;24.60;81.90
39677;DHT22;27789;50.840;4.386;2022-07-25T03:38:26;24.70;82.10
39677;DHT22;27789;50.840;4.386;2022-07-25T03:40:52;24.70;82.10
39677;DHT22;27789;50.840;4.386;2022-07-25T03:43:18;24.70;82.00
39677;DHT22;27789;50.840;4.386;2022-07-25T03:45:43;24.70;82.20
39677;DHT22;27789;50.840;4.386;2022-07-25T03:48:09;24.80;82.00
39677;DHT22;27789;50.840;4.386;2022-07-25T03:50:35;24.80;82.10
39677;DHT22;27789;50.840;4.386;2022-07-25T03:53:00;24.80;82.30
39677;DHT22;27789;50.840;4.386;2022-07-25T03:55:26;24.80;82.50
39677;DHT22;27789;50.840;4.386;2022-07-25T03:57:52;24.70;83.50
39677;DHT22;27789;50.840;4.386;2022-07-25T04:00:17;24.60;84.30
39677;DHT22;27789;50.840;4.386;2022-07-25T04:02:43;24.60;84.10
39677;DHT22;27789;50.840;4.386;2022-07-25T04:05:09;24.60;83.80
39677;DHT22;27789;50.840;4.386;2022-07-25T04:07:35;24.60;84.50
39677;DHT22;27789;50.840;4.386;2022-07-25T04:10:02;24.50;84.20
39677;DHT22;27789;50.840;4.386;2022-07-25T04:12:28;24.50;84.40
39677;DHT22;27789;50.840;4.386;2022-07-25T04:14:53;24.50;83.70
39677;DHT22;27789;50.840;4.386;2022-07-25T04:17:19;24.40;84.30
39677;DHT22;27789;50.840;4.386;2022-07-25T04:19:45;24.30;84.90
39677;DHT22;27789;50.840;4.386;2022-07-25T04:22:10;24.30;83.00
39677;DHT22;27789;50.840;4.386;2022-07-25T04:24:36;24.30;81.60
39677;DHT22;27789;50.840;4.386;2022-07-25T04:27:02;24.30;81.60
39677;DHT22;27789;50.840;4.386;2022-07-25T04:29:28;24.20;81.40
39677;DHT22;27789;50.840;4.386;2022-07-25T04:31:53;24.20;81.80
39677;DHT22;27789;50.840;4.386;2022-07-25T04:34:19;24.10;82.50
39677;DHT22;27789;50.840;4.386;2022-07-25T04:36:45;24.10;82.50
39677;DHT22;27789;50.840;4.386;2022-07-25T04:39:10;24.00;82.20
39677;DHT22;27789;50.840;4.386;2022-07-25T04:41:36;24.10;81.20
39677;DHT22;27789;50.840;4.386;2022-07-25T04:44:02;24.10;81.60
39677;DHT22;27789;50.840;4.386;2022-07-25T04:46:28;24.10;80.50
39677;DHT22;27789;50.840;4.386;2022-07-25T04:48:53;24.00;80.30
39677;DHT22;27789;50.840;4.386;2022-07-25T04:51:19;24.00;79.30
39677;DHT22;27789;50.840;4.386;2022-07-25T04:53:45;23.90;79.00
39677;DHT22;27789;50.840;4.386;2022-07-25T04:56:10;23.80;79.30
39677;DHT22;27789;50.840;4.386;2022-07-25T04:58:36;23.80;79.90
39677;DHT22;27789;50.840;4.386;2022-07-25T05:01:02;23.80;79.10
39677;DHT22;27789;50.840;4.386;2022-07-25T05:03:27;23.80;79.60
39677;DHT22;27789;50.840;4.386;2022-07-25T05:05:53;23.70;80.10
39677;DHT22;27789;50.840;4.386;2022-07-25T05:08:19;23.70;80.50
39677;DHT22;27789;50.840;4.386;2022-07-25T05:10:44;23.70;80.50
39677;DHT22;27789;50.840;4.386;2022-07-25T05:13:10;23.70;80.50
39677;DHT22;27789;50.840;4.386;2022-07-25T05:15:35;23.60;80.90
39677;DHT22;27789;50.840;4.386;2022-07-25T05:18:01;23.50;80.90
39677;DHT22;27789;50.840;4.386;2022-07-25T05:20:27;23.50;81.00
39677;DHT22;27789;50.840;4.386;2022-07-25T05:22:52;23.50;81.00
39677;DHT22;27789;50.840;4.386;2022-07-25T05:25:18;23.50;81.90
39677;DHT22;27789;50.840;4.386;2022-07-25T05:27:44;23.50;82.00
39677;DHT22;27789;50.840;4.386;2022-07-25T05:30:11;23.50;81.60
39677;DHT22;27789;50.840;4.386;2022-07-25T05:32:38;23.50;81.30
39677;DHT22;27789;50.840;4.386;2022-07-25T05:35:05;23.40;82.00
39677;DHT22;27789;50.840;4.386;2022-07-25T05:37:35;23.40;82.10
39677;DHT22;27789;50.840;4.386;2022-07-25T05:40:01;23.40;82.40
39677;DHT22;27789;50.840;4.386;2022-07-25T05:42:27;23.40;83.30
39677;DHT22;27789;50.840;4.386;2022-07-25T05:44:53;23.40;83.60
39677;DHT22;27789;50.840;4.386;2022-07-25T05:47:18;23.40;83.90
39677;DHT22;27789;50.840;4.386;2022-07-25T05:49:44;23.40;83.70
39677;DHT22;27789;50.840;4.386;2022-07-25T05:52:12;23.40;84.10
39677;DHT22;27789;50.840;4.386;2022-07-25T05:54:38;23.30;84.80
39677;DHT22;27789;50.840;4.386;2022-07-25T05:57:04;23.30;85.20
39677;DHT22;27789;50.840;4.386;2022-07-25T05:59:29;23.30;85.40
39677;DHT22;27789;50.840;4.386;2022-07-25T06:01:56;23.40;86.40
39677;DHT22;27789;50.840;4.386;2022-07-25T06:04:21;23.50;86.10
39677;DHT22;27789;50.840;4.386;2022-07-25T06:06:47;23.40;86.80
39677;DHT22;27789;50.840;4.386;2022-07-25T06:09:22;23.40;87.00
39677;DHT22;27789;50.840;4.386;2022-07-25T06:11:48;23.40;86.70
39677;DHT22;27789;50.840;4.386;2022-07-25T06:14:14;23.30;86.40
39677;DHT22;27789;50.840;4.386;2022-07-25T06:16:40;23.30;86.20
39677;DHT22;27789;50.840;4.386;2022-07-25T06:19:06;23.40;85.50
39677;DHT22;27789;50.840;4.386;2022-07-25T06:21:32;23.40;84.40
39677;DHT22;27789;50.840;4.386;2022-07-25T06:23:57;23.30;84.50
39677;DHT22;27789;50.840;4.386;2022-07-25T06:26:23;23.30;83.70
39677;DHT22;27789;50.840;4.386;2022-07-25T06:28:50;23.30;83.80
39677;DHT22;27789;50.840;4.386;2022-07-25T06:31:16;23.30;83.90
39677;DHT22;27789;50.840;4.386;2022-07-25T06:33:41;23.30;84.80
39677;DHT22;27789;50.840;4.386;2022-07-25T06:36:07;23.30;85.40
39677;DHT22;27789;50.840;4.386;2022-07-25T06:38:33;23.20;85.80
39677;DHT22;27789;50.840;4.386;2022-07-25T06:40:59;23.20;86.90
39677;DHT22;27789;50.840;4.386;2022-07-25T06:43:24;23.20;87.00
39677;DHT22;27789;50.840;4.386;2022-07-25T06:45:50;23.10;88.70
39677;DHT22;27789;50.840;4.386;2022-07-25T06:48:16;23.10;88.00
39677;DHT22;27789;50.840;4.386;2022-07-25T06:50:42;23.20;88.40
39677;DHT22;27789;50.840;4.386;2022-07-25T06:53:08;23.20;88.70
39677;DHT22;27789;50.840;4.386;2022-07-25T06:55:34;23.30;89.20
39677;DHT22;27789;50.840;4.386;2022-07-25T06:58:00;23.30;90.00
39677;DHT22;27789;50.840;4.386;2022-07-25T07:00:25;23.40;90.00
39677;DHT22;27789;50.840;4.386;2022-07-25T07:02:56;23.50;90.20
39677;DHT22;27789;50.840;4.386;2022-07-25T07:05:25;23.70;90.20
39677;DHT22;27789;50.840;4.386;2022-07-25T07:07:51;23.80;90.00
39677;DHT22;27789;50.840;4.386;2022-07-25T07:10:19;23.80;89.80
39677;DHT22;27789;50.840;4.386;2022-07-25T07:12:45;23.80;90.30
39677;DHT22;27789;50.840;4.386;2022-07-25T07:15:11;23.80;90.10
39677;DHT22;27789;50.840;4.386;2022-07-25T07:17:37;23.80;90.00
39677;DHT22;27789;50.840;4.386;2022-07-25T07:20:04;23.60;90.00
39677;DHT22;27789;50.840;4.386;2022-07-25T07:22:30;23.60;90.40
39677;DHT22;27789;50.840;4.386;2022-07-25T07:24:56;23.70;90.50
39677;DHT22;27789;50.840;4.386;2022-07-25T07:27:22;23.70;91.00
39677;DHT22;27789;50.840;4.386;2022-07-25T07:29:49;23.70;90.70
39677;DHT22;27789;50.840;4.386;2022-07-25T07:32:14;23.80;90.80
39677;DHT22;27789;50.840;4.386;2022-07-25T07:34:40;23.70;90.80
39677;DHT22;27789;50.840;4.386;2022-07-25T07:37:06;23.80;90.50
39677;DHT22;27789;50.840;4.386;2022-07-25T07:39:31;23.70;91.00
39677;DHT22;27789;50.840;4.386;2022-07-25T07:41:57;23.60;90.60
39677;DHT22;27789;50.840;4.386;2022-07-25T07:44:23;23.60;91.00
39677;DHT22;27789;50.840;4.386;2022-07-25T07:46:48;23.60;91.00
39677;DHT22;27789;50.840;4.386;2022-07-25T07:49:14;23.70;91.20
39677;DHT22;27789;50.840;4.386;2022-07-25T07:51:40;23.60;91.30
39677;DHT22;27789;50.840;4.386;2022-07-25T07:54:06;23.60;91.00
39677;DHT22;27789;50.840;4.386;2022-07-25T07:56:42;23.60;91.10
39677;DHT22;27789;50.840;4.386;2022-07-25T07:59:10;23.60;91.40
39677;DHT22;27789;50.840;4.386;2022-07-25T08:01:36;23.60;91.30
39677;DHT22;27789;50.840;4.386;2022-07-25T08:04:01;23.70;92.00
39677;DHT22;27789;50.840;4.386;2022-07-25T08:06:27;23.80;91.90
39677;DHT22;27789;50.840;4.386;2022-07-25T08:08:52;23.90;91.00
39677;DHT22;27789;50.840;4.386;2022-07-25T08:11:18;24.00;91.30
39677;DHT22;27789;50.840;4.386;2022-07-25T08:13:44;24.00;90.80
39677;DHT22;27789;50.840;4.386;2022-07-25T08:16:10;23.90;91.30
39677;DHT22;27789;50.840;4.386;2022-07-25T08:18:36;24.00;90.90
39677;DHT22;27789;50.840;4.386;2022-07-25T08:21:03;24.10;90.70
39677;DHT22;27789;50.840;4.386;2022-07-25T08:23:33;24.20;91.00
39677;DHT22;27789;50.840;4.386;2022-07-25T08:26:00;24.40;90.80
39677;DHT22;27789;50.840;4.386;2022-07-25T08:28:27;24.60;90.90
39677;DHT22;27789;50.840;4.386;2022-07-25T08:30:53;24.70;90.90
39677;DHT22;27789;50.840;4.386;2022-07-25T08:33:19;24.80;90.40
39677;DHT22;27789;50.840;4.386;2022-07-25T08:35:47;24.80;90.20
39677;DHT22;27789;50.840;4.386;2022-07-25T08:38:13;24.70;90.40
39677;DHT22;27789;50.840;4.386;2022-07-25T08:40:38;24.60;90.80
39677;DHT22;27789;50.840;4.386;2022-07-25T08:43:04;24.70;91.30
39677;DHT22;27789;50.840;4.386;2022-07-25T08:45:32;24.70;90.70
39677;DHT22;27789;50.840;4.386;2022-07-25T08:47:57;24.70;90.70
39677;DHT22;27789;50.840;4.386;2022-07-25T08:50:26;24.70;90.90
39677;DHT22;27789;50.840;4.386;2022-07-25T08:52:52;24.80;91.10
39677;DHT22;27789;50.840;4.386;2022-07-25T08:55:20;24.90;90.30
39677;DHT22;27789;50.840;4.386;2022-07-25T08:57:49;25.00;90.70
39677;DHT22;27789;50.840;4.386;2022-07-25T09:00:19;25.00;90.40
39677;DHT22;27789;50.840;4.386;2022-07-25T09:03:00;25.00;90.30
39677;DHT22;27789;50.840;4.386;2022-07-25T09:05:28;25.00;90.50
39677;DHT22;27789;50.840;4.386;2022-07-25T09:07:55;25.10;90.30
39677;DHT22;27789;50.840;4.386;2022-07-25T09:10:26;25.10;90.30
39677;DHT22;27789;50.840;4.386;2022-07-25T09:12:56;25.10;89.90
39677;DHT22;27789;50.840;4.386;2022-07-25T09:15:30;25.00;89.90
39677;DHT22;27789;50.840;4.386;2022-07-25T09:18:08;25.00;90.60
39677;DHT22;27789;50.840;4.386;2022-07-25T09:23:30;25.30;90.90
39677;DHT22;27789;50.840;4.386;2022-07-25T09:26:08;25.40;90.10
39677;DHT22;27789;50.840;4.386;2022-07-25T09:28:46;25.40;90.20
39677;DHT22;27789;50.840;4.386;2022-07-25T09:31:13;25.60;89.60
39677;DHT22;27789;50.840;4.386;2022-07-25T09:33:47;25.70;90.20
39677;DHT22;27789;50.840;4.386;2022-07-25T09:36:14;25.80;90.10
39677;DHT22;27789;50.840;4.386;2022-07-25T09:38:49;25.90;88.60
39677;DHT22;27789;50.840;4.386;2022-07-25T09:41:15;25.90;87.10
39677;DHT22;27789;50.840;4.386;2022-07-25T09:43:42;26.00;86.90
39677;DHT22;27789;50.840;4.386;2022-07-25T09:46:09;26.10;88.60
39677;DHT22;27789;50.840;4.386;2022-07-25T09:48:36;26.10;85.20
39677;DHT22;27789;50.840;4.386;2022-07-25T09:51:02;26.10;84.90
39677;DHT22;27789;50.840;4.386;2022-07-25T09:53:28;26.00;85.50
39677;DHT22;27789;50.840;4.386;2022-07-25T09:55:54;26.00;84.10
39677;DHT22;27789;50.840;4.386;2022-07-25T09:58:22;26.10;84.30
39677;DHT22;27789;50.840;4.386;2022-07-25T10:00:48;26.30;84.30
39677;DHT22;27789;50.840;4.386;2022-07-25T10:06:01;26.50;83.30
39677;DHT22;27789;50.840;4.386;2022-07-25T10:08:28;26.60;83.50
39677;DHT22;27789;50.840;4.386;2022-07-25T10:10:54;26.80;83.10
39677;DHT22;27789;50.840;4.386;2022-07-25T10:13:28;26.80;83.60
39677;DHT22;27789;50.840;4.386;2022-07-25T10:15:55;27.10;81.70
39677;DHT22;27789;50.840;4.386;2022-07-25T10:18:22;26.80;82.40
39677;DHT22;27789;50.840;4.386;2022-07-25T10:20:51;26.80;83.70
39677;DHT22;27789;50.840;4.386;2022-07-25T10:23:24;26.90;82.70
39677;DHT22;27789;50.840;4.386;2022-07-25T10:26:08;26.90;83.60
39677;DHT22;27789;50.840;4.386;2022-07-25T10:28:43;26.70;82.30
39677;DHT22;27789;50.840;4.386;2022-07-25T10:33:59;26.70;81.70
39677;DHT22;27789;50.840;4.386;2022-07-25T10:36:27;26.70;83.40
39677;DHT22;27789;50.840;4.386;2022-07-25T10:38:58;26.90;83.90
39677;DHT22;27789;50.840;4.386;2022-07-25T10:41:24;27.00;82.90
39677;DHT22;27789;50.840;4.386;2022-07-25T10:43:55;27.20;82.80
39677;DHT22;27789;50.840;4.386;2022-07-25T10:46:25;27.10;80.80
39677;DHT22;27789;50.840;4.386;2022-07-25T10:49:03;27.00;81.70
39677;DHT22;27789;50.840;4.386;2022-07-25T10:51:32;26.90;81.90
39677;DHT22;27789;50.840;4.386;2022-07-25T10:53:58;26.80;81.40
39677;DHT22;27789;50.840;4.386;2022-07-25T10:56:26;26.70;82.50
39677;DHT22;27789;50.840;4.386;2022-07-25T10:59:00;26.50;81.50
39677;DHT22;27789;50.840;4.386;2022-07-25T11:01:27;26.40;83.00
39677;DHT22;27789;50.840;4.386;2022-07-25T11:03:57;26.30;82.20
39677;DHT22;27789;50.840;4.386;2022-07-25T11:06:34;26.30;81.70
39677;DHT22;27789;50.840;4.386;2022-07-25T11:11:39;26.10;82.20
39677;DHT22;27789;50.840;4.386;2022-07-25T11:14:15;25.90;82.80
39677;DHT22;27789;50.840;4.386;2022-07-25T11:16:42;25.80;82.60
39677;DHT22;27789;50.840;4.386;2022-07-25T11:19:24;25.70;82.90
39677;DHT22;27789;50.840;4.386;2022-07-25T11:21:58;25.60;83.00
39677;DHT22;27789;50.840;4.386;2022-07-25T11:24:42;25.60;83.30
39677;DHT22;27789;50.840;4.386;2022-07-25T11:27:19;25.40;82.90
39677;DHT22;27789;50.840;4.386;2022-07-25T11:29:44;25.30;83.70
39677;DHT22;27789;50.840;4.386;2022-07-25T11:32:11;25.20;83.90
39677;DHT22;27789;50.840;4.386;2022-07-25T11:34:40;25.00;84.00
39677;DHT22;27789;50.840;4.386;2022-07-25T11:37:08;24.90;85.40
39677;DHT22;27789;50.840;4.386;2022-07-25T11:39:36;24.90;84.70
39677;DHT22;27789;50.840;4.386;2022-07-25T11:42:05;24.90;84.70
39677;DHT22;27789;50.840;4.386;2022-07-25T11:44:37;24.80;84.80
39677;DHT22;27789;50.840;4.386;2022-07-25T11:47:05;24.80;85.10
39677;DHT22;27789;50.840;4.386;2022-07-25T11:49:42;24.70;85.10
39677;DHT22;27789;50.840;4.386;2022-07-25T11:52:20;24.60;84.60
39677;DHT22;27789;50.840;4.386;2022-07-25T11:55:07;24.70;84.30
39677;DHT22;27789;50.840;4.386;2022-07-25T11:57:37;24.70;84.50
39677;DHT22;27789;50.840;4.386;2022-07-25T12:00:09;24.60;84.80
39677;DHT22;27789;50.840;4.386;2022-07-25T12:02:36;24.50;85.90
39677;DHT22;27789;50.840;4.386;2022-07-25T12:05:07;24.50;86.00
39677;DHT22;27789;50.840;4.386;2022-07-25T12:07:44;24.70;85.50
39677;DHT22;27789;50.840;4.386;2022-07-25T12:10:18;25.00;85.40
39677;DHT22;27789;50.840;4.386;2022-07-25T12:12:49;25.40;83.70
39677;DHT22;27789;50.840;4.386;2022-07-25T12:15:27;26.00;82.30
39677;DHT22;27789;50.840;4.386;2022-07-25T12:17:54;26.80;80.80
39677;DHT22;27789;50.840;4.386;2022-07-25T12:20:32;26.90;79.80
39677;DHT22;27789;50.840;4.386;2022-07-25T12:23:03;27.00;79.60
39677;DHT22;27789;50.840;4.386;2022-07-25T12:25:30;26.70;80.20
39677;DHT22;27789;50.840;4.386;2022-07-25T12:27:56;26.20;81.50
39677;DHT22;27789;50.840;4.386;2022-07-25T12:30:23;25.90;81.30
39677;DHT22;27789;50.840;4.386;2022-07-25T12:32:49;25.70;82.30
39677;DHT22;27789;50.840;4.386;2022-07-25T12:35:15;25.50;82.70
39677;DHT22;27789;50.840;4.386;2022-07-25T12:37:41;25.20;83.00
39677;DHT22;27789;50.840;4.386;2022-07-25T12:40:08;25.10;84.20
39677;DHT22;27789;50.840;4.386;2022-07-25T12:42:34;25.10;84.20
39677;DHT22;27789;50.840;4.386;2022-07-25T12:44:59;25.10;84.80
39677;DHT22;27789;50.840;4.386;2022-07-25T12:47:28;25.10;84.70
39677;DHT22;27789;50.840;4.386;2022-07-25T12:49:54;25.30;84.60
39677;DHT22;27789;50.840;4.386;2022-07-25T12:52:20;26.70;82.70
39677;DHT22;27789;50.840;4.386;2022-07-25T12:54:46;28.30;80.80
39677;DHT22;27789;50.840;4.386;2022-07-25T12:57:13;28.40;78.10
39677;DHT22;27789;50.840;4.386;2022-07-25T12:59:40;29.00;76.60
39677;DHT22;27789;50.840;4.386;2022-07-25T13:02:06;28.70;77.40
39677;DHT22;27789;50.840;4.386;2022-07-25T13:04:32;28.10;77.20
39677;DHT22;27789;50.840;4.386;2022-07-25T13:06:58;27.50;77.10
39677;DHT22;27789;50.840;4.386;2022-07-25T13:09:25;27.10;78.50
39677;DHT22;27789;50.840;4.386;2022-07-25T13:11:51;27.00;78.70
39677;DHT22;27789;50.840;4.386;2022-07-25T13:14:17;27.50;78.30
39677;DHT22;27789;50.840;4.386;2022-07-25T13:16:47;28.50;76.20
39677;DHT22;27789;50.840;4.386;2022-07-25T13:19:14;28.70;73.80
39677;DHT22;27789;50.840;4.386;2022-07-25T13:21:40;28.70;73.40
39677;DHT22;27789;50.840;4.386;2022-07-25T13:24:07;28.60;73.30
39677;DHT22;27789;50.840;4.386;2022-07-25T13:26:33;28.90;73.00
39677;DHT22;27789;50.840;4.386;2022-07-25T13:28:59;29.20;71.70
39677;DHT22;27789;50.840;4.386;2022-07-25T13:31:25;29.10;71.80
39677;DHT22;27789;50.840;4.386;2022-07-25T13:33:52;29.00;71.90
39677;DHT22;27789;50.840;4.386;2022-07-25T13:36:17;28.90;72.00
39677;DHT22;27789;50.840;4.386;2022-07-25T13:38:43;28.90;72.40
39677;DHT22;27789;50.840;4.386;2022-07-25T13:41:11;28.60;72.50
39677;DHT22;27789;50.840;4.386;2022-07-25T13:43:37;28.10;72.80
39677;DHT22;27789;50.840;4.386;2022-07-25T13:46:03;28.10;73.20
39677;DHT22;27789;50.840;4.386;2022-07-25T13:48:29;28.20;73.00
39677;DHT22;27789;50.840;4.386;2022-07-25T13:50:56;28.10;72.30
39677;DHT22;27789;50.840;4.386;2022-07-25T13:53:22;27.80;72.40
39677;DHT22;27789;50.840;4.386;2022-07-25T13:55:48;27.70;72.50
39677;DHT22;27789;50.840;4.386;2022-07-25T13:58:14;28.10;72.10
39677;DHT22;27789;50.840;4.386;2022-07-25T14:00:39;29.00;72.60
39677;DHT22;27789;50.840;4.386;2022-07-25T14:03:05;30.00;68.80
39677;DHT22;27789;50.840;4.386;2022-07-25T14:05:31;30.20;68.60
39677;DHT22;27789;50.840;4.386;2022-07-25T14:07:58;30.30;67.70
39677;DHT22;27789;50.840;4.386;2022-07-25T14:10:24;29.80;67.40
39677;DHT22;27789;50.840;4.386;2022-07-25T14:12:50;29.60;68.30
39677;DHT22;27789;50.840;4.386;2022-07-25T14:15:15;29.30;68.80
39677;DHT22;27789;50.840;4.386;2022-07-25T14:17:42;29.20;69.60
39677;DHT22;27789;50.840;4.386;2022-07-25T14:20:08;28.90;68.50
39677;DHT22;27789;50.840;4.386;2022-07-25T14:22:34;28.60;69.60
39677;DHT22;27789;50.840;4.386;2022-07-25T14:25:00;28.30;69.10
39677;DHT22;27789;50.840;4.386;2022-07-25T14:27:26;28.10;68.40
39677;DHT22;27789;50.840;4.386;2022-07-25T14:29:52;28.00;67.90
39677;DHT22;27789;50.840;4.386;2022-07-25T14:32:18;27.80;68.40
39677;DHT22;27789;50.840;4.386;2022-07-25T14:34:44;27.80;69.10
39677;DHT22;27789;50.840;4.386;2022-07-25T14:37:09;27.90;68.90
39677;DHT22;27789;50.840;4.386;2022-07-25T14:39:35;28.00;68.30
39677;DHT22;27789;50.840;4.386;2022-07-25T14:42:01;28.10;68.00
39677;DHT22;27789;50.840;4.386;2022-07-25T14:44:27;28.10;69.40
39677;DHT22;27789;50.840;4.386;2022-07-25T14:46:54;28.30;68.20
39677;DHT22;27789;50.840;4.386;2022-07-25T14:49:23;28.40;67.70
39677;DHT22;27789;50.840;4.386;2022-07-25T14:51:49;28.30;67.90
39677;DHT22;27789;50.840;4.386;2022-07-25T14:54:15;28.10;67.40
39677;DHT22;27789;50.840;4.386;2022-07-25T14:56:42;27.90;67.50
39677;DHT22;27789;50.840;4.386;2022-07-25T14:59:08;27.90;68.10
39677;DHT22;27789;50.840;4.386;2022-07-25T15:01:35;27.90;69.30
39677;DHT22;27789;50.840;4.386;2022-07-25T15:04:04;27.70;68.00
39677;DHT22;27789;50.840;4.386;2022-07-25T15:06:30;27.50;69.10
39677;DHT22;27789;50.840;4.386;2022-07-25T15:08:56;27.50;68.80
39677;DHT22;27789;50.840;4.386;2022-07-25T15:11:21;27.50;69.20
39677;DHT22;27789;50.840;4.386;2022-07-25T15:13:47;27.30;69.40
39677;DHT22;27789;50.840;4.386;2022-07-25T15:16:14;27.20;69.00
39677;DHT22;27789;50.840;4.386;2022-07-25T15:18:40;27.30;69.00
39677;DHT22;27789;50.840;4.386;2022-07-25T15:21:08;27.50;70.40
39677;DHT22;27789;50.840;4.386;2022-07-25T15:23:34;27.60;68.00
39677;DHT22;27789;50.840;4.386;2022-07-25T15:26:01;27.60;67.40
39677;DHT22;27789;50.840;4.386;2022-07-25T15:28:26;27.60;68.20
39677;DHT22;27789;50.840;4.386;2022-07-25T15:30:53;27.80;67.90
39677;DHT22;27789;50.840;4.386;2022-07-25T15:33:19;27.70;67.70
39677;DHT22;27789;50.840;4.386;2022-07-25T15:35:45;27.50;68.00
39677;DHT22;27789;50.840;4.386;2022-07-25T15:38:15;27.40;67.80
39677;DHT22;27789;50.840;4.386;2022-07-25T15:40:42;27.20;68.20